This is the latest recevied weather packets stored in our database for station/object KG5EO. If no packets are shown the sender has not sent any weather packets the latest 1 day(s).
| Time | Temp. | Humidity | Pressure | Rain* | Wind** | Luminosity | Snow |
|---|---|---|---|---|---|---|---|
| 1778058063 | 14.44° C | 49% | 41 hPa | 0 mm | - | - | - |
| 1778057762 | 14.44° C | 48% | 41 hPa | 0 mm | - | - | - |
| 1778057462 | 14.44° C | 49% | 41 hPa | 0 mm | - | - | - |
| 1778056563 | 14.44° C | 48% | 41 hPa | 0 mm | - | - | - |
| 1778055962 | 14.44° C | 48% | 41.1 hPa | 0 mm | - | - | - |
| 1778055661 | 14.44° C | 47% | 41.1 hPa | 0 mm | - | - | - |
| 1778055361 | 14.44° C | 47% | 41.1 hPa | 0 mm | - | - | - |
| 1778055061 | 14.44° C | 48% | 41.1 hPa | 0 mm | - | - | - |
| 1778054760 | 14.44° C | 49% | 41 hPa | 0 mm | - | - | - |
| 1778053860 | 15° C | 47% | 41.1 hPa | 0 mm | - | - | - |
| 1778053260 | 15.56° C | 45% | 41 hPa | 0 mm | - | - | - |
| 1778052663 | 15.56° C | 45% | 41 hPa | 0 mm | - | - | - |
| 1778052059 | 15° C | 46% | 41 hPa | 0 mm | - | - | - |
| 1778051761 | 15° C | 46% | 41 hPa | 0 mm | - | - | - |
| 1778051459 | 15° C | 47% | 41 hPa | 0 mm | - | - | - |
| 1778051160 | 15° C | 45% | 41 hPa | 0 mm | - | - | - |
| 1778050558 | 15.56° C | 43% | 41 hPa | 0 mm | - | - | - |
| 1778050258 | 15.56° C | 43% | 41 hPa | 0 mm | - | - | - |
| 1778049658 | 15.56° C | 45% | 41 hPa | 0 mm | - | - | - |
| 1778049359 | 15.56° C | 46% | 41 hPa | 0 mm | - | - | - |
| 1778048458 | 16.11° C | 41% | 41 hPa | 0 mm | - | - | - |
| 1778048157 | 16.67° C | 40% | 41 hPa | 0 mm | - | - | - |
| 1778047857 | 16.67° C | 42% | 41 hPa | 0 mm | - | - | - |
| 1778047557 | 17.22° C | 41% | 41 hPa | 0 mm | - | - | - |
| 1778046957 | 17.78° C | 38% | 41 hPa | 0 mm | - | - | - |
* Rain latest hour (hover to see other rain measurements)
** Current wind speed in m/s (hover to see current wind gust speed)